createdAt,value
2023-05-25T00:01:45.023Z,10.32
2023-05-25T00:04:17.490Z,10.33
2023-05-25T00:06:45.568Z,9.68
2023-05-25T00:09:12.670Z,9.82
2023-05-25T00:11:39.987Z,9.85
2023-05-25T00:14:08.459Z,9.82
2023-05-25T00:16:40.835Z,9.75
2023-05-25T00:19:10.855Z,9.80
2023-05-25T00:21:41.545Z,10.30
2023-05-25T00:24:08.893Z,9.88
2023-05-25T00:26:36.259Z,10.02
2023-05-25T00:29:07.648Z,9.47
2023-05-25T00:31:36.932Z,10.50
2023-05-25T00:34:04.351Z,9.82
2023-05-25T00:36:31.475Z,10.10
2023-05-25T00:38:58.779Z,10.27
2023-05-25T00:41:28.550Z,10.43
2023-05-25T00:43:56.184Z,10.18
2023-05-25T00:46:24.092Z,10.80
2023-05-25T00:48:55.860Z,11.20
2023-05-25T00:51:23.128Z,12.80
2023-05-25T00:53:50.280Z,13.88
2023-05-25T00:56:26.335Z,13.97
2023-05-25T00:58:57.090Z,13.35
2023-05-25T01:01:26.518Z,13.95
2023-05-25T01:03:56.382Z,12.43
2023-05-25T01:06:24.002Z,13.07
2023-05-25T01:09:00.398Z,12.03
2023-05-25T01:11:33.594Z,11.37
2023-05-25T01:14:02.069Z,11.40
2023-05-25T01:16:30.098Z,10.97
2023-05-25T01:18:57.794Z,11.93
2023-05-25T01:21:38.074Z,11.47
2023-05-25T01:24:22.966Z,11.40
2023-05-25T01:27:13.553Z,10.87
2023-05-25T01:29:45.625Z,11.20
2023-05-25T01:32:14.673Z,11.20
2023-05-25T01:34:44.220Z,10.43
2023-05-25T01:37:17.638Z,11.30
2023-05-25T03:21:22.597Z,11.80
2023-05-25T03:23:49.981Z,11.87
2023-05-25T03:26:17.783Z,11.13
2023-05-25T03:28:44.902Z,11.43
2023-05-25T03:31:12.713Z,13.43
2023-05-25T03:33:39.912Z,12.83
2023-05-25T03:36:09.235Z,11.97
2023-05-25T03:38:37.571Z,11.50
2023-05-25T03:41:05.147Z,13.95
2023-05-25T03:43:32.328Z,14.23
2023-05-25T03:45:59.401Z,14.40
2023-05-25T03:48:26.482Z,14.45
2023-05-25T03:50:54.359Z,18.30
2023-05-25T03:53:21.453Z,12.10
2023-05-25T03:55:52.343Z,11.77
2023-05-25T03:58:19.773Z,13.00
2023-05-25T04:00:49.204Z,12.48
2023-05-25T04:03:16.777Z,12.50
2023-05-25T04:05:46.008Z,13.27
2023-05-25T04:08:20.641Z,12.52
2023-05-25T04:10:47.919Z,12.82
2023-05-25T04:13:15.104Z,12.60
2023-05-25T04:15:42.294Z,13.27
2023-05-25T04:18:09.715Z,13.40
2023-05-25T04:20:37.044Z,14.63
2023-05-25T04:23:04.150Z,13.50
2023-05-25T04:25:32.228Z,12.98
2023-05-25T04:27:59.476Z,10.80
2023-05-25T04:30:26.622Z,10.40
2023-05-25T04:32:55.031Z,9.98
2023-05-25T04:35:22.198Z,10.13
2023-05-25T04:37:49.481Z,10.20
2023-05-25T04:40:16.524Z,10.70
2023-05-25T04:42:45.050Z,11.13
2023-05-25T04:45:17.313Z,11.30
2023-05-25T04:47:45.414Z,11.70
2023-05-25T04:50:13.035Z,12.70
2023-05-25T04:52:40.202Z,11.18
2023-05-25T04:55:07.859Z,13.00
2023-05-25T04:57:35.055Z,13.02
2023-05-25T05:00:02.735Z,12.80
2023-05-25T05:02:29.832Z,12.35
2023-05-25T05:04:56.907Z,13.20
2023-05-25T05:07:24.127Z,13.07
2023-05-25T05:09:51.273Z,12.52
2023-05-25T05:12:21.752Z,13.87
2023-05-25T05:14:53.492Z,13.25
2023-05-25T05:17:21.901Z,11.95
2023-05-25T05:19:50.580Z,12.63
2023-05-25T05:22:20.995Z,12.77
2023-05-25T05:24:48.724Z,11.10
2023-05-25T05:27:59.015Z,11.60
2023-05-25T05:30:26.404Z,10.30
2023-05-25T05:32:59.642Z,10.90
2023-05-25T05:35:43.988Z,11.27
2023-05-25T05:38:25.034Z,9.95
2023-05-25T05:40:52.800Z,10.10
2023-05-25T05:43:20.458Z,10.32
2023-05-25T05:45:52.243Z,9.90
2023-05-25T05:48:19.475Z,11.18
2023-05-25T05:50:46.817Z,10.13
2023-05-25T05:53:16.429Z,11.37
2023-05-25T05:55:43.865Z,11.00
2023-05-25T05:58:34.261Z,10.60
2023-05-25T06:01:00.573Z,10.65
2023-05-25T06:03:29.009Z,10.93
2023-05-25T06:05:56.417Z,21.40
2023-05-25T06:08:27.749Z,11.80
2023-05-25T06:10:56.384Z,10.73
2023-05-25T06:13:23.545Z,11.13
2023-05-25T06:16:24.272Z,11.50
2023-05-25T06:18:51.424Z,11.23
2023-05-25T06:21:18.880Z,11.30
2023-05-25T06:23:47.794Z,11.35
2023-05-25T06:26:15.211Z,11.90
2023-05-25T06:28:42.547Z,11.65
2023-05-25T06:31:10.975Z,11.05
2023-05-25T06:33:38.217Z,11.05
2023-05-25T06:36:05.918Z,10.60
2023-05-25T06:38:41.375Z,10.35
2023-05-25T06:41:09.920Z,10.98
2023-05-25T06:43:37.109Z,10.90
2023-05-25T06:46:07.475Z,11.15
2023-05-25T06:48:34.819Z,11.10
2023-05-25T06:51:02.165Z,11.10
2023-05-25T06:53:29.397Z,12.25
2023-05-25T06:55:56.478Z,11.47
2023-05-25T06:58:23.575Z,11.90
2023-05-25T07:00:50.730Z,11.70
2023-05-25T07:03:17.811Z,10.65
2023-05-25T07:05:45.453Z,11.57
2023-05-25T07:08:12.826Z,9.95
2023-05-25T07:10:39.878Z,10.25
2023-05-25T07:13:06.943Z,10.15
2023-05-25T07:15:33.990Z,9.88
2023-05-25T07:18:01.169Z,12.75
2023-05-25T07:20:28.388Z,10.50
2023-05-25T07:22:55.819Z,9.82
2023-05-25T07:25:22.953Z,9.50
2023-05-25T07:27:50.596Z,8.85
2023-05-25T07:30:17.779Z,9.18
2023-05-25T07:32:44.990Z,9.27
2023-05-25T07:35:12.128Z,9.02
2023-05-25T07:37:39.238Z,9.68
2023-05-25T07:40:07.262Z,9.40
2023-05-25T07:42:35.443Z,10.43
2023-05-25T07:45:02.950Z,9.18
2023-05-25T07:47:30.203Z,8.53
2023-05-25T07:49:57.485Z,8.82
2023-05-25T07:52:24.572Z,9.13
2023-05-25T07:54:51.847Z,7.47
2023-05-25T07:57:19.066Z,6.72
2023-05-25T07:59:46.262Z,6.30
2023-05-25T08:02:13.449Z,6.88
2023-05-25T08:04:41.325Z,6.40
2023-05-25T08:07:08.580Z,6.50
2023-05-25T08:09:35.684Z,6.60
2023-05-25T08:12:24.042Z,6.20
2023-05-25T08:14:50.986Z,6.93
2023-05-25T08:17:18.016Z,6.45
2023-05-25T08:19:45.226Z,5.72
2023-05-25T08:22:12.334Z,6.47
2023-05-25T08:24:39.395Z,6.40
2023-05-25T08:27:06.605Z,6.53
2023-05-25T08:29:33.718Z,6.60
2023-05-25T08:32:01.057Z,7.05
2023-05-25T08:34:29.346Z,6.68
2023-05-25T08:36:58.193Z,7.15
2023-05-25T08:39:25.386Z,6.57
2023-05-25T08:41:52.791Z,6.95
2023-05-25T08:44:21.345Z,6.77
2023-05-25T08:46:51.563Z,6.50
2023-05-25T08:49:18.903Z,6.33
2023-05-25T08:51:52.100Z,6.03
2023-05-25T08:54:23.465Z,5.55
2023-05-25T08:56:58.150Z,5.57
2023-05-25T08:59:32.775Z,5.25
2023-05-25T09:02:43.712Z,5.40
2023-05-25T09:05:10.922Z,4.93
2023-05-25T09:07:38.200Z,6.10
2023-05-25T09:10:05.890Z,5.03
2023-05-25T09:12:33.549Z,5.77
2023-05-25T09:15:00.927Z,5.55
2023-05-25T09:17:28.282Z,4.93
2023-05-25T09:19:55.491Z,5.47
2023-05-25T09:22:22.719Z,4.63
2023-05-25T09:24:50.195Z,4.63
2023-05-25T09:27:19.329Z,4.97
2023-05-25T09:37:19.411Z,4.30
2023-05-25T09:39:47.978Z,4.43
2023-05-25T09:42:15.113Z,4.83
2023-05-25T09:44:43.194Z,4.83
2023-05-25T09:47:11.154Z,4.68
2023-05-25T09:49:38.689Z,4.40
2023-05-25T09:52:06.747Z,4.07
2023-05-25T09:54:33.751Z,4.27
2023-05-25T09:57:05.282Z,4.70
2023-05-25T09:59:32.728Z,4.87
2023-05-25T10:01:59.953Z,4.10
2023-05-25T10:04:27.186Z,4.83
2023-05-25T10:06:56.755Z,4.67
2023-05-25T10:09:26.212Z,5.83
2023-05-25T10:11:54.938Z,4.40
